createdAt,value
2022-10-18T00:03:22.773Z,100280.00
2022-10-18T00:13:24.162Z,100281.41
2022-10-18T00:23:25.908Z,100287.38
2022-10-18T00:33:27.417Z,100282.34
2022-10-18T00:43:28.789Z,100275.09
2022-10-18T00:53:30.204Z,100269.03
2022-10-18T01:03:31.796Z,100266.34
2022-10-18T01:13:33.053Z,100254.75
2022-10-18T01:23:57.063Z,100269.41
2022-10-18T01:34:05.639Z,100240.75
2022-10-18T01:44:07.214Z,100246.72
2022-10-18T01:54:09.466Z,100252.97
2022-10-18T02:04:29.099Z,100262.91
2022-10-18T02:14:30.533Z,100254.78
2022-10-18T02:24:34.705Z,100243.97
2022-10-18T02:34:45.002Z,100236.50
2022-10-18T02:44:46.382Z,100234.84
2022-10-18T02:54:47.747Z,100237.72
2022-10-18T03:04:49.338Z,100248.53
2022-10-18T03:14:50.746Z,100245.16
2022-10-18T03:24:52.277Z,100252.66
2022-10-18T03:34:53.668Z,100261.75
2022-10-18T03:44:55.030Z,100255.91
2022-10-18T03:54:56.567Z,100251.53
2022-10-18T04:04:58.847Z,100250.41
2022-10-18T04:15:00.233Z,100250.41
2022-10-18T04:25:01.606Z,100258.03
2022-10-18T04:35:03.834Z,100244.72
2022-10-18T04:45:05.698Z,100241.34
2022-10-18T04:55:07.345Z,100240.75
2022-10-18T05:05:11.692Z,100256.06
2022-10-18T05:15:15.411Z,100266.03
2022-10-18T05:25:16.779Z,100269.53
2022-10-18T05:35:18.188Z,100268.88
2022-10-18T05:45:19.681Z,100279.69
2022-10-18T05:55:21.228Z,100276.81
2022-10-18T06:05:22.727Z,100287.41
2022-10-18T06:15:24.117Z,100287.22
2022-10-18T06:25:25.496Z,100294.47
2022-10-18T06:35:26.886Z,100284.72
2022-10-18T06:45:28.259Z,100302.00
2022-10-18T06:55:32.521Z,100314.41
2022-10-18T07:15:40.496Z,100339.97
2022-10-18T07:25:41.888Z,100340.22
2022-10-18T07:35:43.281Z,100352.13
2022-10-18T07:46:00.978Z,100366.84
2022-10-18T07:56:08.779Z,100379.88
2022-10-18T08:06:12.292Z,100381.34
2022-10-18T08:26:34.242Z,100391.03
2022-10-18T08:36:35.660Z,100408.13
2022-10-18T08:46:37.401Z,100414.84
2022-10-18T08:56:43.285Z,100427.13
2022-10-18T09:07:03.601Z,100434.97
2022-10-18T09:17:16.059Z,100437.28
2022-10-18T09:27:18.936Z,100442.97
2022-10-18T09:37:20.831Z,100452.25
2022-10-18T09:47:26.934Z,100455.16
2022-10-18T09:57:32.664Z,100458.88
2022-10-18T10:07:35.411Z,100467.31
2022-10-18T10:17:37.213Z,100472.56
2022-10-18T10:27:45.296Z,100479.88
2022-10-18T10:37:46.672Z,100480.03
2022-10-18T10:47:48.208Z,100489.34
2022-10-18T10:57:50.999Z,100492.75
2022-10-18T11:07:54.604Z,100490.59
2022-10-18T11:18:20.177Z,100485.69
2022-10-18T11:28:36.452Z,100486.34
2022-10-18T11:38:57.317Z,100478.44
2022-10-18T11:49:26.429Z,100473.47
2022-10-18T11:59:34.260Z,100470.09
2022-10-18T12:09:43.360Z,100459.63
2022-10-18T12:19:45.640Z,100455.78
2022-10-18T12:29:50.394Z,100468.44
2022-10-18T12:40:12.089Z,100457.47
2022-10-18T12:50:26.964Z,100450.47
2022-10-18T13:00:31.232Z,100447.66
2022-10-18T13:10:33.716Z,100446.34
2022-10-18T13:20:40.803Z,100457.38
2022-10-18T13:31:00.907Z,100453.78
2022-10-18T13:41:11.387Z,100459.13
2022-10-18T13:51:50.262Z,100461.03
2022-10-18T14:02:42.925Z,100456.97
2022-10-18T14:12:44.725Z,100465.53
2022-10-18T14:23:06.567Z,100462.97
2022-10-18T14:33:26.252Z,100467.50
2022-10-18T14:43:27.608Z,100458.22
2022-10-18T14:53:34.478Z,100461.06
2022-10-18T15:03:35.872Z,100468.81
2022-10-18T15:13:42.212Z,100474.47
2022-10-18T15:23:43.657Z,100482.03
2022-10-18T15:33:45.034Z,100470.22
2022-10-18T15:43:46.479Z,100469.97
2022-10-18T15:53:51.680Z,100465.19
2022-10-18T16:14:00.555Z,100472.22
2022-10-18T16:24:02.511Z,100479.91
2022-10-18T16:34:04.396Z,100478.06
2022-10-18T16:44:05.785Z,100489.09
2022-10-18T16:54:07.171Z,100506.03
2022-10-18T17:04:08.596Z,100511.19
2022-10-18T17:14:09.967Z,100516.06
2022-10-18T17:24:11.959Z,100526.78
2022-10-18T17:34:16.459Z,100535.94
2022-10-18T17:44:20.198Z,100540.59
2022-10-18T17:54:21.707Z,100536.53
2022-10-18T18:04:24.050Z,100553.75
2022-10-18T18:14:25.500Z,100552.94
2022-10-18T18:24:29.843Z,100562.25
2022-10-18T18:34:31.215Z,100551.84
2022-10-18T18:44:33.841Z,100564.88
2022-10-18T18:54:35.258Z,100556.78
2022-10-18T19:04:36.644Z,100560.84
2022-10-18T19:14:38.192Z,100563.34
2022-10-18T19:24:39.597Z,100550.41
2022-10-18T19:34:41.419Z,100551.13
2022-10-18T19:44:43.459Z,100551.63
2022-10-18T19:54:45.040Z,100543.56
2022-10-18T20:04:46.432Z,100545.88
2022-10-18T20:14:47.809Z,100557.50
2022-10-18T20:24:49.302Z,100558.34
2022-10-18T20:34:50.688Z,100556.28
2022-10-18T20:44:52.089Z,100560.47
2022-10-18T20:54:53.568Z,100564.00
2022-10-18T21:04:55.073Z,100571.47
2022-10-18T21:14:56.461Z,100558.69
2022-10-18T21:24:57.835Z,100549.47
2022-10-18T21:34:59.984Z,100544.53
2022-10-18T21:45:01.475Z,100538.50
2022-10-18T21:55:06.957Z,100533.81
2022-10-18T22:05:11.309Z,100530.72
2022-10-18T22:15:13.631Z,100525.72
2022-10-18T22:25:15.054Z,100540.94
2022-10-18T22:35:16.545Z,100527.00
2022-10-18T22:45:18.073Z,100529.31
2022-10-18T22:55:19.577Z,100535.03
2022-10-18T23:05:21.066Z,100538.66
2022-10-18T23:15:22.511Z,100511.63
2022-10-18T23:25:23.961Z,100517.47
2022-10-18T23:35:25.453Z,100520.38
2022-10-18T23:45:26.843Z,100516.25
2022-10-18T23:55:28.211Z,100514.03
